createdAt,value
2019-02-28T00:02:23.096Z,21.87
2019-02-28T00:04:49.191Z,21.60
2019-02-28T00:07:17.819Z,21.00
2019-02-28T00:09:44.397Z,21.97
2019-02-28T00:12:13.701Z,22.37
2019-02-28T00:14:39.718Z,22.53
2019-02-28T00:17:06.231Z,22.27
2019-02-28T00:19:33.924Z,23.13
2019-02-28T00:22:00.067Z,23.00
2019-02-28T00:24:27.170Z,22.60
2019-02-28T00:26:54.582Z,23.50
2019-02-28T00:29:20.884Z,24.17
2019-02-28T00:31:49.918Z,23.53
2019-02-28T00:34:15.096Z,24.43
2019-02-28T00:36:41.172Z,24.63
2019-02-28T00:39:07.392Z,25.33
2019-02-28T00:41:33.814Z,24.70
2019-02-28T00:43:59.904Z,26.40
2019-02-28T00:46:26.075Z,25.17
2019-02-28T00:48:53.011Z,24.37
2019-02-28T00:51:20.169Z,25.73
2019-02-28T00:53:46.262Z,26.30
2019-02-28T00:56:12.443Z,27.00
2019-02-28T00:58:38.697Z,27.10
2019-02-28T01:01:04.960Z,26.17
2019-02-28T01:03:31.191Z,27.47
2019-02-28T01:05:57.492Z,26.80
2019-02-28T01:08:23.843Z,26.03
2019-02-28T01:10:49.948Z,27.60
2019-02-28T01:13:17.161Z,27.33
2019-02-28T01:15:44.878Z,26.97
2019-02-28T01:18:11.405Z,27.33
2019-02-28T01:20:37.661Z,27.07
2019-02-28T01:23:03.996Z,27.93
2019-02-28T01:25:30.101Z,27.73
2019-02-28T01:27:56.419Z,29.43
2019-02-28T01:30:22.685Z,28.90
2019-02-28T01:32:50.895Z,30.27
2019-02-28T01:35:17.008Z,29.60
2019-02-28T01:37:43.313Z,31.33
2019-02-28T01:40:11.319Z,32.13
2019-02-28T01:42:37.465Z,32.80
2019-02-28T01:45:07.037Z,33.33
2019-02-28T01:47:34.392Z,32.63
2019-02-28T01:50:00.494Z,31.97
2019-02-28T01:52:26.708Z,32.97
2019-02-28T01:54:52.933Z,32.20
2019-02-28T01:57:19.237Z,34.27
2019-02-28T01:59:45.364Z,33.03
2019-02-28T02:02:11.672Z,33.87
2019-02-28T02:04:37.988Z,32.27
2019-02-28T02:07:04.277Z,32.90
2019-02-28T02:09:30.466Z,32.63
2019-02-28T02:11:59.128Z,32.93
2019-02-28T02:14:25.371Z,34.70
2019-02-28T02:16:51.407Z,35.43
2019-02-28T02:19:18.531Z,33.90
2019-02-28T02:21:45.005Z,34.07
2019-02-28T02:24:11.300Z,36.27
2019-02-28T02:26:37.409Z,34.00
2019-02-28T02:29:09.008Z,32.03
2019-02-28T02:31:35.309Z,36.60
2019-02-28T02:34:05.287Z,36.20
2019-02-28T02:36:31.491Z,34.70
2019-02-28T02:38:57.683Z,35.80
2019-02-28T02:41:23.736Z,37.00
2019-02-28T02:43:49.834Z,36.17
2019-02-28T02:46:20.164Z,35.30
2019-02-28T02:48:43.932Z,35.20
2019-02-28T02:51:11.339Z,35.00
2019-02-28T02:53:42.157Z,35.67
2019-02-28T02:56:06.147Z,35.33
2019-02-28T02:58:33.413Z,35.77
2019-02-28T03:00:59.607Z,35.67
2019-02-28T03:03:25.796Z,36.50
2019-02-28T03:05:51.887Z,37.47
2019-02-28T03:08:17.976Z,35.77
2019-02-28T03:10:44.242Z,37.03
2019-02-28T03:13:10.326Z,39.13
2019-02-28T03:15:36.437Z,38.03
2019-02-28T03:18:06.448Z,37.03
2019-02-28T03:20:32.641Z,38.87
2019-02-28T03:23:02.232Z,40.37
2019-02-28T03:25:28.271Z,36.90
2019-02-28T03:27:56.431Z,39.17
2019-02-28T03:30:31.119Z,38.60
2019-02-28T03:32:51.051Z,37.10
2019-02-28T03:35:17.177Z,37.83
2019-02-28T03:37:43.529Z,38.57
2019-02-28T03:40:13.060Z,38.27
2019-02-28T03:42:39.361Z,41.13
2019-02-28T03:45:10.650Z,36.13
2019-02-28T03:47:36.828Z,37.30
2019-02-28T03:50:08.519Z,34.03
2019-02-28T03:52:41.794Z,35.37
2019-02-28T03:55:05.494Z,38.13
2019-02-28T03:57:31.911Z,40.83
2019-02-28T03:59:58.077Z,42.53
2019-02-28T04:02:24.385Z,39.07
2019-02-28T04:04:50.953Z,39.73
2019-02-28T04:07:17.221Z,37.80
2019-02-28T04:09:44.311Z,38.93
2019-02-28T04:12:11.522Z,38.90
2019-02-28T04:14:37.636Z,37.80
2019-02-28T04:17:06.623Z,37.93
2019-02-28T04:19:32.937Z,37.00
2019-02-28T04:21:59.146Z,34.57
2019-02-28T04:24:25.251Z,37.63
2019-02-28T04:26:51.586Z,40.03
2019-02-28T04:29:17.668Z,37.43
2019-02-28T04:31:43.746Z,36.07
2019-02-28T04:34:13.058Z,33.50
2019-02-28T04:36:37.927Z,36.33
2019-02-28T04:39:08.514Z,36.87
2019-02-28T04:41:36.663Z,36.33
2019-02-28T04:44:04.972Z,38.00
2019-02-28T04:46:33.873Z,37.07
2019-02-28T04:48:59.972Z,37.93
2019-02-28T04:51:26.069Z,38.03
2019-02-28T04:53:54.100Z,38.20
2019-02-28T04:56:20.409Z,41.50
2019-02-28T04:58:46.481Z,37.97
2019-02-28T05:01:13.429Z,37.50
2019-02-28T05:03:39.712Z,39.17
2019-02-28T05:06:07.385Z,40.53
2019-02-28T05:08:38.560Z,38.40
2019-02-28T05:11:04.389Z,39.40
2019-02-28T05:13:30.451Z,40.37
2019-02-28T05:15:56.788Z,40.67
2019-02-28T05:18:22.915Z,39.83
2019-02-28T05:20:49.040Z,40.70
2019-02-28T05:23:15.151Z,46.53
2019-02-28T05:25:41.487Z,46.67
2019-02-28T05:28:07.625Z,44.83
2019-02-28T05:30:33.699Z,44.07
2019-02-28T05:32:59.827Z,45.97
2019-02-28T05:35:28.587Z,44.17
2019-02-28T05:37:54.811Z,52.13
2019-02-28T05:40:20.979Z,51.07
2019-02-28T05:42:47.220Z,53.60
2019-02-28T05:45:14.752Z,55.20
2019-02-28T05:47:46.119Z,56.37
2019-02-28T05:50:15.155Z,41.33
2019-02-28T05:52:40.306Z,42.80
2019-02-28T05:55:08.942Z,42.87
2019-02-28T05:57:35.159Z,44.80
2019-02-28T06:00:09.908Z,44.33
2019-02-28T06:02:36.207Z,45.63
2019-02-28T06:05:08.487Z,46.93
2019-02-28T06:07:34.904Z,54.73
2019-02-28T06:10:09.176Z,58.90
2019-02-28T06:12:35.257Z,68.80
2019-02-28T06:15:09.522Z,60.20
2019-02-28T06:17:35.712Z,60.03
2019-02-28T06:20:08.335Z,64.07
2019-02-28T06:22:36.198Z,60.67
2019-02-28T06:25:09.797Z,58.83
2019-02-28T06:27:41.673Z,61.80
2019-02-28T06:30:10.238Z,61.23
2019-02-28T06:32:36.441Z,61.10
2019-02-28T06:35:16.157Z,61.33
2019-02-28T06:37:39.792Z,58.67
2019-02-28T06:40:13.010Z,59.53
2019-02-28T06:42:39.305Z,59.37
2019-02-28T06:45:11.245Z,61.10
2019-02-28T06:47:39.076Z,60.43
2019-02-28T06:50:09.271Z,60.87
2019-02-28T06:52:35.387Z,61.47
2019-02-28T06:55:03.880Z,64.57
2019-02-28T06:57:30.357Z,64.73
2019-02-28T06:59:56.581Z,64.50
2019-02-28T07:02:22.853Z,62.07
2019-02-28T07:04:49.619Z,59.40
2019-02-28T07:07:16.774Z,62.07
2019-02-28T07:09:42.882Z,60.83
2019-02-28T07:12:09.183Z,57.23
2019-02-28T07:14:35.307Z,59.53
2019-02-28T07:17:17.541Z,59.97
2019-02-28T07:19:43.633Z,62.80
2019-02-28T07:22:09.859Z,59.97
2019-02-28T07:24:37.572Z,61.37
2019-02-28T07:27:04.323Z,62.67
2019-02-28T07:29:32.070Z,65.07
2019-02-28T07:32:01.249Z,62.37
2019-02-28T07:34:26.634Z,63.43
2019-02-28T07:36:52.722Z,67.50
2019-02-28T07:39:18.909Z,62.07
2019-02-28T07:41:45.127Z,64.40
2019-02-28T07:44:11.214Z,60.20
2019-02-28T07:46:38.806Z,62.33
2019-02-28T07:49:05.670Z,61.70
2019-02-28T07:51:31.871Z,61.97
2019-02-28T07:53:59.163Z,62.47
2019-02-28T07:56:25.286Z,64.47
2019-02-28T07:58:52.150Z,59.47
2019-02-28T08:01:19.575Z,63.17
2019-02-28T08:03:45.743Z,61.13
2019-02-28T08:06:11.839Z,64.63
2019-02-28T08:08:38.031Z,63.10
2019-02-28T08:11:04.460Z,61.17
2019-02-28T08:13:30.831Z,63.17
2019-02-28T08:16:00.236Z,65.30
2019-02-28T08:18:25.377Z,61.80
2019-02-28T08:20:51.535Z,62.30
2019-02-28T08:23:17.656Z,63.50
2019-02-28T08:25:43.858Z,64.20
2019-02-28T08:28:10.088Z,63.20
2019-02-28T08:30:36.391Z,63.53
2019-02-28T08:33:02.894Z,64.80
2019-02-28T08:35:33.936Z,65.30
2019-02-28T08:37:57.486Z,67.67
2019-02-28T08:40:26.768Z,67.53
2019-02-28T08:42:52.860Z,68.27
2019-02-28T08:45:19.150Z,67.60
2019-02-28T08:47:45.447Z,71.70
2019-02-28T08:50:20.212Z,71.57
2019-02-28T08:52:48.349Z,69.87
2019-02-28T08:55:14.778Z,66.33
2019-02-28T08:57:44.407Z,68.67
2019-02-28T09:00:19.044Z,69.43
2019-02-28T09:02:45.458Z,66.67
2019-02-28T09:05:12.459Z,67.13
2019-02-28T09:07:38.759Z,68.50
2019-02-28T09:10:11.808Z,70.40
2019-02-28T09:12:36.892Z,71.57
2019-02-28T09:15:05.422Z,71.43
2019-02-28T09:17:31.653Z,71.63
2019-02-28T09:19:57.923Z,68.90
2019-02-28T09:22:26.877Z,71.27
2019-02-28T09:24:52.580Z,75.00
2019-02-28T09:27:18.759Z,69.97
2019-02-28T09:29:46.158Z,71.93
2019-02-28T09:32:13.625Z,70.87
2019-02-28T09:34:43.667Z,71.67
2019-02-28T09:37:09.764Z,68.47
2019-02-28T09:39:35.849Z,68.27
2019-02-28T09:42:02.173Z,68.33
2019-02-28T09:44:31.534Z,67.90
2019-02-28T09:46:56.644Z,69.23
2019-02-28T09:49:22.682Z,70.13
2019-02-28T09:51:48.712Z,71.87
2019-02-28T09:54:14.831Z,72.87
2019-02-28T09:56:44.477Z,73.27
2019-02-28T09:59:09.226Z,71.63
2019-02-28T10:01:35.440Z,71.13
2019-02-28T10:04:01.561Z,70.40
2019-02-28T10:06:27.964Z,72.43
2019-02-28T10:08:54.291Z,77.23
2019-02-28T10:11:21.810Z,72.97
2019-02-28T10:13:49.583Z,72.37
2019-02-28T10:16:16.788Z,73.27
2019-02-28T10:18:43.870Z,74.90
2019-02-28T10:21:09.956Z,74.73
2019-02-28T10:23:36.179Z,77.37
2019-02-28T10:26:02.660Z,71.87
2019-02-28T10:28:29.009Z,73.07
2019-02-28T10:30:55.214Z,76.57
2019-02-28T10:33:21.404Z,74.37
2019-02-28T10:35:47.621Z,74.20
2019-02-28T10:38:13.960Z,75.20
2019-02-28T10:40:40.191Z,75.83
2019-02-28T10:43:06.431Z,75.63
2019-02-28T10:45:32.846Z,78.67
2019-02-28T10:48:02.867Z,78.10
2019-02-28T10:50:33.259Z,77.90
2019-02-28T10:53:04.235Z,82.10
2019-02-28T10:55:27.759Z,77.10
2019-02-28T10:57:53.969Z,79.77
2019-02-28T11:00:32.770Z,76.97
2019-02-28T11:03:00.155Z,79.33
2019-02-28T11:05:29.917Z,77.53
2019-02-28T11:07:56.628Z,77.13
2019-02-28T11:10:26.556Z,75.17
2019-02-28T11:12:54.349Z,74.43
2019-02-28T11:15:23.046Z,75.13
2019-02-28T11:17:49.267Z,77.50
2019-02-28T11:20:22.080Z,76.83
2019-02-28T11:22:44.333Z,75.13
2019-02-28T11:25:13.654Z,75.87
2019-02-28T11:27:40.566Z,75.97
2019-02-28T11:30:25.841Z,76.63
2019-02-28T11:32:52.508Z,74.03
2019-02-28T11:35:20.145Z,74.00
2019-02-28T11:37:47.128Z,73.47
2019-02-28T11:40:17.099Z,71.67
2019-02-28T11:42:43.508Z,72.47
2019-02-28T11:45:18.549Z,70.83
2019-02-28T11:47:45.408Z,72.17
2019-02-28T11:50:11.675Z,74.37
2019-02-28T11:52:38.068Z,73.20
2019-02-28T11:55:07.644Z,73.07
2019-02-28T11:57:33.975Z,72.67
2019-02-28T12:00:00.447Z,71.07
2019-02-28T12:02:29.491Z,71.87
2019-02-28T12:04:55.813Z,74.87
2019-02-28T12:07:22.186Z,74.20
2019-02-28T12:09:51.356Z,74.07
2019-02-28T12:12:16.410Z,73.30
2019-02-28T12:14:42.690Z,66.10
2019-02-28T12:17:08.888Z,71.30
2019-02-28T12:19:35.125Z,68.13
2019-02-28T12:22:01.344Z,66.83
2019-02-28T12:24:29.368Z,67.30
2019-02-28T12:26:56.535Z,68.30
2019-02-28T12:29:22.781Z,66.53
2019-02-28T12:31:48.982Z,66.00
2019-02-28T12:34:15.222Z,68.03
2019-02-28T12:36:41.332Z,65.33
2019-02-28T12:39:07.802Z,70.07
2019-02-28T12:41:35.426Z,66.73
2019-02-28T12:44:02.288Z,68.33
2019-02-28T12:46:31.778Z,68.80
2019-02-28T12:48:56.914Z,67.83
2019-02-28T12:51:23.287Z,68.20
2019-02-28T12:53:51.668Z,67.20
2019-02-28T12:56:18.071Z,71.43
2019-02-28T12:58:44.405Z,70.93
2019-02-28T13:01:11.057Z,70.90
2019-02-28T13:03:37.397Z,72.27
2019-02-28T13:06:03.705Z,74.43
2019-02-28T13:08:30.045Z,73.87
2019-02-28T13:11:03.220Z,75.83
2019-02-28T13:13:27.757Z,73.60
2019-02-28T13:15:52.915Z,74.70
2019-02-28T13:18:19.137Z,72.40
2019-02-28T13:20:45.340Z,72.27
2019-02-28T13:23:11.892Z,68.23
2019-02-28T13:25:39.214Z,66.63
2019-02-28T13:28:06.448Z,70.13
2019-02-28T13:30:32.779Z,70.57
2019-02-28T13:32:59.064Z,67.17
2019-02-28T13:35:28.478Z,69.50
2019-02-28T13:37:54.695Z,66.37
2019-02-28T13:40:22.219Z,66.30
2019-02-28T13:42:48.793Z,67.80
2019-02-28T13:45:22.994Z,66.70
2019-02-28T13:47:46.391Z,68.43
2019-02-28T13:50:33.072Z,68.27
2019-02-28T13:53:03.413Z,67.93
2019-02-28T13:55:27.821Z,67.10
2019-02-28T13:57:55.106Z,64.40
2019-02-28T14:00:23.671Z,65.10
2019-02-28T14:02:55.718Z,66.80
2019-02-28T14:05:23.076Z,64.93
2019-02-28T14:07:49.675Z,62.60
2019-02-28T14:10:18.217Z,64.10
2019-02-28T14:12:44.618Z,67.57
2019-02-28T14:15:15.499Z,63.87
2019-02-28T14:17:42.271Z,65.87
2019-02-28T14:20:09.990Z,64.77
2019-02-28T14:22:37.420Z,62.73
2019-02-28T14:25:06.427Z,63.07
2019-02-28T14:27:33.378Z,58.63
2019-02-28T14:29:59.885Z,56.03
2019-02-28T14:32:26.231Z,52.70
2019-02-28T14:34:52.563Z,53.63
2019-02-28T14:37:19.614Z,55.30
2019-02-28T14:39:46.625Z,53.30
2019-02-28T14:42:12.783Z,56.30
2019-02-28T14:44:39.140Z,56.03
2019-02-28T14:47:05.432Z,58.30
2019-02-28T14:49:31.653Z,58.00
2019-02-28T14:52:00.425Z,57.87
2019-02-28T14:54:25.956Z,56.17
2019-02-28T14:56:52.123Z,58.10
2019-02-28T14:59:18.382Z,53.73
2019-02-28T15:01:44.613Z,56.40
2019-02-28T15:04:18.739Z,55.77
2019-02-28T15:06:47.232Z,55.63
2019-02-28T15:09:14.706Z,55.03
2019-02-28T15:11:43.609Z,54.93
2019-02-28T15:14:09.776Z,55.40
2019-02-28T15:16:36.047Z,56.77
2019-02-28T15:19:18.032Z,57.33
2019-02-28T15:21:44.376Z,59.17
2019-02-28T15:24:10.705Z,57.80
2019-02-28T15:26:36.937Z,56.27
2019-02-28T15:29:05.602Z,57.70
2019-02-28T15:31:34.366Z,64.60
2019-02-28T15:34:07.542Z,61.00
2019-02-28T15:36:33.766Z,60.53
2019-02-28T15:38:59.956Z,61.03
2019-02-28T15:41:26.188Z,61.80
2019-02-28T15:43:53.736Z,61.30
2019-02-28T15:46:21.820Z,61.83
2019-02-28T15:48:49.739Z,61.97
2019-02-28T15:51:25.782Z,61.63
2019-02-28T15:53:53.162Z,62.93
2019-02-28T15:56:21.721Z,63.50
2019-02-28T15:58:47.993Z,62.10
2019-02-28T16:01:14.333Z,66.07
2019-02-28T16:03:40.617Z,64.87
2019-02-28T16:06:06.848Z,66.77
2019-02-28T16:08:33.162Z,69.23
2019-02-28T16:10:59.409Z,70.33
2019-02-28T16:13:25.972Z,70.67
2019-02-28T16:15:52.864Z,72.23
2019-02-28T16:18:19.000Z,73.47
2019-02-28T16:20:45.200Z,72.40
2019-02-28T16:23:11.433Z,73.53
2019-02-28T16:25:38.594Z,75.57
2019-02-28T16:28:07.810Z,74.30
2019-02-28T16:30:34.435Z,74.23
2019-02-28T16:33:01.326Z,77.17
2019-02-28T16:35:29.020Z,72.50
2019-02-28T16:37:55.478Z,73.23
2019-02-28T16:40:26.926Z,77.97
2019-02-28T16:42:52.965Z,78.23
2019-02-28T16:45:26.860Z,74.40
2019-02-28T16:47:55.698Z,76.97
2019-02-28T16:50:21.217Z,75.90
2019-02-28T16:52:47.387Z,80.13
2019-02-28T16:55:13.746Z,78.77
2019-02-28T16:57:39.961Z,77.87
2019-02-28T17:00:09.989Z,79.93
2019-02-28T17:02:36.421Z,87.37
2019-02-28T17:05:05.223Z,80.87
2019-02-28T17:07:31.659Z,81.37
2019-02-28T17:09:57.973Z,79.93
2019-02-28T17:12:28.945Z,84.77
2019-02-28T17:14:55.203Z,84.20
2019-02-28T17:17:25.934Z,86.97
2019-02-28T17:19:52.207Z,82.60
2019-02-28T17:22:18.412Z,82.30
2019-02-28T17:24:46.154Z,83.40
2019-02-28T17:27:24.786Z,74.57
2019-02-28T17:29:52.868Z,68.40
2019-02-28T17:32:19.688Z,65.53
2019-02-28T17:34:47.243Z,67.33
2019-02-28T17:37:13.760Z,59.13
2019-02-28T17:39:40.223Z,63.67
2019-02-28T17:42:08.760Z,61.40
2019-02-28T17:44:41.551Z,61.37
2019-02-28T17:47:29.174Z,55.03
2019-02-28T17:50:08.445Z,55.07
2019-02-28T17:52:47.014Z,55.67
2019-02-28T17:55:36.865Z,54.27
2019-02-28T17:58:06.911Z,54.67
2019-02-28T18:00:54.536Z,53.83
2019-02-28T18:03:36.915Z,54.13
2019-02-28T18:06:12.845Z,54.70
2019-02-28T18:08:45.968Z,54.60
2019-02-28T18:11:30.940Z,55.23
2019-02-28T18:14:11.876Z,57.10
2019-02-28T18:17:01.357Z,58.37
2019-02-28T18:19:43.481Z,54.77
2019-02-28T18:22:25.738Z,57.83
2019-02-28T18:25:14.072Z,59.57
2019-02-28T18:27:57.418Z,59.03
2019-02-28T18:31:00.881Z,58.17
2019-02-28T18:33:27.184Z,60.13
2019-02-28T18:35:53.366Z,60.17
2019-02-28T18:38:19.674Z,60.40
2019-02-28T18:40:45.936Z,60.07
2019-02-28T18:43:12.359Z,61.93
2019-02-28T18:45:38.571Z,63.83
2019-02-28T18:48:04.990Z,64.20
2019-02-28T18:50:31.425Z,63.60
2019-02-28T18:52:57.781Z,60.93
2019-02-28T18:55:24.196Z,64.53
2019-02-28T18:57:50.522Z,62.97
2019-02-28T19:00:18.835Z,63.03
2019-02-28T19:02:45.269Z,66.30
2019-02-28T19:05:12.660Z,64.67
2019-02-28T19:07:40.364Z,63.83
2019-02-28T19:10:08.473Z,64.87
2019-02-28T19:12:35.589Z,63.17
2019-02-28T19:15:02.430Z,62.60
2019-02-28T19:17:30.125Z,64.47
2019-02-28T19:19:57.551Z,61.90
2019-02-28T19:22:23.887Z,62.83
2019-02-28T19:24:49.951Z,62.83
2019-02-28T19:27:16.263Z,57.57
2019-02-28T19:29:42.611Z,58.73
2019-02-28T19:32:08.897Z,54.80
2019-02-28T19:34:35.423Z,53.70
2019-02-28T19:37:01.662Z,52.47
2019-02-28T19:39:27.981Z,54.07
2019-02-28T19:41:54.422Z,53.90
2019-02-28T19:44:20.865Z,51.73
2019-02-28T19:46:47.183Z,52.03
2019-02-28T19:49:13.550Z,48.23
2019-02-28T19:51:40.448Z,48.50
2019-02-28T19:54:06.683Z,50.30
2019-02-28T19:56:32.915Z,52.23
2019-02-28T19:58:59.371Z,50.73
2019-02-28T20:01:25.674Z,49.33
2019-02-28T20:03:51.909Z,50.87
2019-02-28T20:06:18.251Z,49.73
2019-02-28T20:08:44.581Z,48.43
2019-02-28T20:11:14.104Z,45.33
2019-02-28T20:13:40.623Z,45.83
2019-02-28T20:16:12.588Z,46.00
2019-02-28T20:18:47.552Z,45.17
2019-02-28T20:21:14.472Z,43.30
2019-02-28T20:23:42.699Z,40.47
2019-02-28T20:26:08.953Z,40.17
2019-02-28T20:28:35.283Z,39.63
2019-02-28T20:33:41.042Z,38.67
2019-02-28T20:36:10.709Z,37.87
2019-02-28T20:38:37.079Z,36.43
2019-02-28T20:41:10.509Z,34.43
2019-02-28T20:43:41.091Z,36.27
2019-02-28T20:46:10.628Z,36.47
2019-02-28T20:48:36.925Z,34.47
2019-02-28T20:51:09.963Z,34.27
2019-02-28T20:53:36.417Z,32.80
2019-02-28T20:56:09.045Z,32.93
2019-02-28T20:58:35.306Z,34.10
2019-02-28T21:01:06.626Z,31.13
2019-02-28T21:03:34.507Z,33.10
2019-02-28T21:08:40.218Z,33.10
2019-02-28T21:11:12.542Z,32.03
2019-02-28T21:13:38.991Z,31.73
2019-02-28T21:16:09.405Z,30.73
2019-02-28T21:18:35.610Z,31.43
2019-02-28T21:21:05.894Z,30.67
2019-02-28T21:23:32.266Z,29.03
2019-02-28T21:25:59.380Z,29.70
2019-02-28T21:28:27.552Z,29.70
2019-02-28T21:30:53.761Z,29.80
2019-02-28T21:33:20.011Z,28.53
2019-02-28T21:35:46.438Z,28.03
2019-02-28T21:38:13.404Z,28.40
2019-02-28T21:40:40.947Z,27.27
2019-02-28T21:43:09.893Z,27.30
2019-02-28T21:45:42.398Z,25.67
2019-02-28T21:48:16.579Z,26.27
2019-02-28T21:50:42.973Z,27.13
2019-02-28T21:53:09.247Z,28.10
2019-02-28T21:55:35.611Z,28.20
2019-02-28T21:58:13.105Z,27.47
2019-02-28T22:00:39.577Z,29.17
2019-02-28T22:03:06.266Z,29.43
2019-02-28T22:05:32.665Z,29.07
2019-02-28T22:07:58.952Z,29.13
2019-02-28T22:10:25.386Z,30.63
2019-02-28T22:12:53.237Z,30.60
2019-02-28T22:15:22.211Z,31.60
2019-02-28T22:17:48.350Z,30.43
2019-02-28T22:20:16.560Z,30.77
2019-02-28T22:22:42.915Z,31.87
2019-02-28T22:25:15.754Z,32.93
2019-02-28T22:27:42.102Z,31.40
2019-02-28T22:30:34.792Z,31.40
2019-02-28T22:33:32.503Z,33.10
2019-02-28T22:36:00.499Z,31.63
2019-02-28T22:38:33.240Z,31.27
2019-02-28T22:40:59.473Z,31.50
2019-02-28T22:43:25.809Z,32.53
2019-02-28T22:45:52.057Z,32.33
2019-02-28T22:48:18.267Z,33.10
2019-02-28T22:50:44.618Z,33.77
2019-02-28T22:53:10.976Z,32.17
2019-02-28T22:55:37.082Z,33.50
2019-02-28T22:58:08.098Z,31.67
2019-02-28T23:01:06.853Z,33.33
2019-02-28T23:03:35.653Z,34.90
2019-02-28T23:06:02.207Z,33.70
2019-02-28T23:08:28.516Z,35.03
2019-02-28T23:10:54.807Z,35.00
2019-02-28T23:13:21.087Z,34.90
2019-02-28T23:15:47.322Z,34.30
2019-02-28T23:18:14.030Z,34.73
2019-02-28T23:20:40.211Z,35.10
2019-02-28T23:23:06.523Z,35.63
2019-02-28T23:25:33.071Z,35.37
2019-02-28T23:28:23.453Z,37.17
2019-02-28T23:30:56.341Z,36.07
2019-02-28T23:33:22.444Z,36.00
2019-02-28T23:35:48.764Z,36.83
2019-02-28T23:38:14.957Z,37.00
2019-02-28T23:40:41.148Z,36.20
2019-02-28T23:43:07.364Z,38.10
2019-02-28T23:45:33.693Z,39.57
2019-02-28T23:47:59.883Z,40.07
2019-02-28T23:50:26.213Z,41.07
2019-02-28T23:52:52.419Z,40.63
2019-02-28T23:55:18.523Z,41.07
2019-02-28T23:57:44.699Z,40.27
